createdAt,value
2019-05-19T00:00:25.676Z,93.59
2019-05-19T00:01:25.653Z,93.69
2019-05-19T00:02:25.618Z,93.59
2019-05-19T00:03:25.668Z,93.79
2019-05-19T00:04:25.559Z,93.89
2019-05-19T00:05:25.534Z,93.79
2019-05-19T00:06:25.498Z,93.84
2019-05-19T00:07:25.468Z,93.93
2019-05-19T00:08:25.473Z,93.79
2019-05-19T00:09:25.411Z,93.93
2019-05-19T00:10:25.384Z,94.24
2019-05-19T00:11:25.355Z,93.93
2019-05-19T00:12:25.329Z,93.84
2019-05-19T00:13:25.315Z,94.04
2019-05-19T00:14:25.268Z,93.84
2019-05-19T00:15:25.244Z,93.93
2019-05-19T00:16:25.212Z,94.45
2019-05-19T00:17:25.186Z,94.24
2019-05-19T00:18:25.171Z,94.14
2019-05-19T00:19:27.035Z,94.14
2019-05-19T00:20:25.115Z,94.18
2019-05-19T00:21:25.055Z,94.85
2019-05-19T00:22:25.026Z,95.06
2019-05-19T00:23:25.022Z,94.70
2019-05-19T00:24:24.967Z,94.85
2019-05-19T00:25:24.956Z,94.70
2019-05-19T00:26:24.911Z,94.85
2019-05-19T00:27:24.889Z,94.75
2019-05-19T00:28:24.872Z,94.65
2019-05-19T00:29:24.876Z,94.85
2019-05-19T00:30:24.795Z,94.65
2019-05-19T00:31:24.762Z,94.45
2019-05-19T00:32:24.728Z,94.65
2019-05-19T00:33:24.724Z,94.65
2019-05-19T00:34:24.681Z,94.65
2019-05-19T00:35:24.653Z,94.65
2019-05-19T00:36:24.612Z,94.85
2019-05-19T00:37:24.587Z,94.65
2019-05-19T00:38:24.639Z,94.80
2019-05-19T00:39:24.577Z,94.85
2019-05-19T00:40:24.510Z,94.55
2019-05-19T00:41:24.468Z,94.70
2019-05-19T00:42:24.448Z,95.17
2019-05-19T00:43:24.436Z,95.17
2019-05-19T00:44:24.397Z,95.21
2019-05-19T00:45:24.351Z,95.31
2019-05-19T00:46:24.326Z,95.41
2019-05-19T00:47:24.344Z,95.00
2019-05-19T00:48:24.330Z,95.10
2019-05-19T00:49:24.243Z,95.21
2019-05-19T00:50:24.214Z,95.10
2019-05-19T00:51:24.202Z,95.51
2019-05-19T00:52:24.152Z,95.72
2019-05-19T00:53:24.156Z,95.72
2019-05-19T00:54:24.082Z,95.82
2019-05-19T00:55:24.056Z,95.51
2019-05-19T00:56:24.018Z,95.72
2019-05-19T00:57:23.998Z,95.51
2019-05-19T00:58:23.963Z,95.82
2019-05-19T00:59:23.960Z,96.44
2019-05-19T01:00:23.936Z,96.03
2019-05-19T01:01:23.891Z,96.23
2019-05-19T01:02:23.861Z,96.13
2019-05-19T01:03:23.818Z,95.92
2019-05-19T01:04:23.808Z,96.03
2019-05-19T01:05:23.760Z,96.03
2019-05-19T01:06:23.726Z,96.13
2019-05-19T01:07:23.781Z,95.92
2019-05-19T01:08:23.677Z,96.03
2019-05-19T01:09:23.677Z,96.03
2019-05-19T01:10:23.619Z,96.13
2019-05-19T01:11:23.577Z,96.03
2019-05-19T01:12:23.549Z,95.92
2019-05-19T01:13:23.521Z,95.92
2019-05-19T01:14:23.526Z,96.23
2019-05-19T01:15:23.463Z,96.03
2019-05-19T01:16:23.436Z,96.13
2019-05-19T01:17:23.405Z,96.03
2019-05-19T01:18:23.374Z,96.44
2019-05-19T01:19:23.369Z,96.23
2019-05-19T01:20:23.373Z,96.07
2019-05-19T01:21:23.288Z,96.28
2019-05-19T01:22:23.254Z,96.48
2019-05-19T01:23:23.220Z,96.79
2019-05-19T01:24:23.229Z,96.58
2019-05-19T01:25:23.161Z,96.28
2019-05-19T01:26:23.130Z,96.28
2019-05-19T01:27:23.111Z,96.38
2019-05-19T01:28:23.084Z,96.69
2019-05-19T01:29:23.071Z,96.83
2019-05-19T01:30:23.023Z,96.99
2019-05-19T01:31:23.005Z,97.30
2019-05-19T01:32:22.954Z,97.30
2019-05-19T01:33:22.931Z,96.89
2019-05-19T01:34:22.925Z,97.20
2019-05-19T01:35:22.865Z,97.71
2019-05-19T01:36:22.838Z,97.40
2019-05-19T01:37:22.822Z,97.71
2019-05-19T01:38:22.775Z,97.50
2019-05-19T01:39:22.793Z,97.30
2019-05-19T01:40:22.712Z,97.50
2019-05-19T01:41:22.695Z,97.40
2019-05-19T01:42:22.657Z,97.61
2019-05-19T01:43:22.627Z,97.61
2019-05-19T01:44:22.621Z,97.50
2019-05-19T01:45:22.568Z,97.09
2019-05-19T01:46:22.546Z,97.09
2019-05-19T01:47:22.513Z,97.71
2019-05-19T01:48:22.495Z,97.91
2019-05-19T01:49:22.508Z,97.65
2019-05-19T01:50:22.418Z,98.02
2019-05-19T01:51:22.390Z,98.22
2019-05-19T01:52:22.358Z,97.81
2019-05-19T01:53:22.322Z,98.02
2019-05-19T01:54:22.331Z,97.86
2019-05-19T01:55:22.281Z,98.22
2019-05-19T01:56:22.257Z,98.33
2019-05-19T01:57:22.211Z,98.12
2019-05-19T01:58:22.186Z,98.22
2019-05-19T01:59:22.170Z,98.02
2019-05-19T02:00:22.119Z,98.12
2019-05-19T02:01:22.088Z,98.12
2019-05-19T02:02:22.065Z,98.22
2019-05-19T02:03:22.026Z,98.33
2019-05-19T02:04:22.029Z,98.16
2019-05-19T02:05:22.014Z,98.27
2019-05-19T02:06:21.937Z,97.96
2019-05-19T02:07:21.912Z,98.16
2019-05-19T02:08:21.874Z,98.16
2019-05-19T02:09:21.868Z,98.27
2019-05-19T02:10:21.846Z,98.16
2019-05-19T02:11:21.803Z,98.16
2019-05-19T02:12:21.763Z,98.37
2019-05-19T02:13:21.727Z,98.16
2019-05-19T02:14:21.695Z,97.86
2019-05-19T02:15:21.703Z,97.96
2019-05-19T02:16:21.649Z,97.96
2019-05-19T02:17:21.612Z,98.32
2019-05-19T02:18:21.599Z,98.16
2019-05-19T02:19:21.546Z,98.11
2019-05-19T02:20:32.687Z,98.21
2019-05-19T02:21:21.492Z,98.32
2019-05-19T02:22:21.475Z,98.11
2019-05-19T02:23:21.461Z,98.00
2019-05-19T02:24:21.396Z,98.21
2019-05-19T02:25:21.475Z,97.91
2019-05-19T02:26:21.337Z,97.91
2019-05-19T02:27:21.319Z,98.72
2019-05-19T02:28:21.279Z,98.21
2019-05-19T02:29:21.246Z,98.52
2019-05-19T02:30:21.243Z,98.52
2019-05-19T02:31:21.183Z,98.42
2019-05-19T02:32:21.159Z,98.62
2019-05-19T02:33:21.139Z,98.21
2019-05-19T02:34:21.101Z,98.21
2019-05-19T02:35:21.095Z,98.32
2019-05-19T02:36:21.042Z,98.32
2019-05-19T02:37:21.008Z,98.52
2019-05-19T02:38:20.982Z,98.93
2019-05-19T02:39:20.942Z,98.83
2019-05-19T02:40:20.943Z,98.83
2019-05-19T02:41:20.887Z,98.83
2019-05-19T02:42:20.861Z,98.72
2019-05-19T02:43:20.887Z,99.03
2019-05-19T02:44:20.792Z,99.13
2019-05-19T02:45:20.789Z,98.93
2019-05-19T02:46:20.742Z,98.83
2019-05-19T02:47:20.702Z,98.93
2019-05-19T02:48:20.683Z,98.83
2019-05-19T02:49:20.651Z,99.08
2019-05-19T02:50:20.657Z,98.83
2019-05-19T02:51:20.584Z,98.93
2019-05-19T02:52:20.555Z,98.83
2019-05-19T02:53:20.532Z,98.93
2019-05-19T02:54:20.495Z,99.65
2019-05-19T02:55:20.491Z,99.54
2019-05-19T02:56:20.449Z,99.24
2019-05-19T02:57:20.403Z,99.34
2019-05-19T02:58:20.372Z,99.34
2019-05-19T02:59:20.356Z,99.24
2019-05-19T03:00:20.341Z,99.13
2019-05-19T03:01:20.282Z,99.40
2019-05-19T03:02:20.251Z,98.88
2019-05-19T03:03:20.242Z,99.34
2019-05-19T03:04:20.195Z,98.88
2019-05-19T03:05:20.191Z,98.93
2019-05-19T03:06:20.135Z,98.88
2019-05-19T03:07:20.110Z,99.03
2019-05-19T03:08:20.072Z,99.09
2019-05-19T03:09:20.045Z,99.13
2019-05-19T03:10:20.047Z,99.03
2019-05-19T03:11:19.987Z,99.09
2019-05-19T03:12:19.964Z,99.09
2019-05-19T03:13:19.937Z,99.09
2019-05-19T03:14:19.888Z,99.40
2019-05-19T03:15:19.862Z,99.60
2019-05-19T03:16:19.860Z,99.50
2019-05-19T03:17:19.805Z,98.78
2019-05-19T03:18:19.780Z,98.78
2019-05-19T03:19:19.743Z,98.99
2019-05-19T03:20:19.719Z,98.78
2019-05-19T03:21:19.712Z,98.63
2019-05-19T03:22:19.654Z,98.99
2019-05-19T03:23:19.627Z,99.19
2019-05-19T03:24:19.597Z,98.83
2019-05-19T03:25:19.566Z,98.78
2019-05-19T03:26:19.559Z,98.94
2019-05-19T03:27:19.498Z,98.33
2019-05-19T03:28:19.481Z,98.53
2019-05-19T03:29:19.443Z,98.22
2019-05-19T03:30:19.439Z,98.02
2019-05-19T03:31:19.437Z,97.91
2019-05-19T03:32:19.394Z,97.87
2019-05-19T03:33:19.325Z,98.12
2019-05-19T03:34:19.291Z,98.02
2019-05-19T03:35:19.266Z,98.28
2019-05-19T03:36:19.267Z,97.97
2019-05-19T03:37:19.207Z,97.36
2019-05-19T03:38:19.182Z,97.61
2019-05-19T03:39:19.142Z,97.56
2019-05-19T03:40:19.113Z,97.56
2019-05-19T03:41:19.117Z,97.25
2019-05-19T03:42:19.060Z,97.41
2019-05-19T03:43:19.026Z,97.52
2019-05-19T03:44:19.000Z,97.21
2019-05-19T03:45:18.973Z,97.11
2019-05-19T03:46:18.960Z,97.00
2019-05-19T03:47:18.907Z,96.75
2019-05-19T03:48:18.881Z,96.45
2019-05-19T03:49:18.864Z,96.91
2019-05-19T03:50:18.846Z,96.04
2019-05-19T03:51:30.385Z,96.45
2019-05-19T03:52:18.823Z,95.73
2019-05-19T03:53:18.729Z,96.04
2019-05-19T03:54:18.750Z,95.94
2019-05-19T03:55:18.672Z,96.45
2019-05-19T03:56:18.675Z,96.14
2019-05-19T03:57:18.619Z,95.73
2019-05-19T03:58:18.616Z,95.38
2019-05-19T03:59:18.555Z,95.59
2019-05-19T04:00:18.527Z,95.59
2019-05-19T04:01:18.533Z,94.82
2019-05-19T04:02:18.474Z,94.82
2019-05-19T04:03:18.441Z,94.62
2019-05-19T04:04:18.425Z,94.82
2019-05-19T04:05:18.379Z,94.01
2019-05-19T04:06:18.379Z,93.66
2019-05-19T04:07:18.341Z,93.25
2019-05-19T04:08:18.289Z,93.00
2019-05-19T04:09:18.262Z,93.00
2019-05-19T04:10:18.229Z,92.24
2019-05-19T04:11:18.207Z,91.74
2019-05-19T04:12:18.210Z,91.83
2019-05-19T04:13:18.145Z,91.83
2019-05-19T04:14:18.133Z,91.63
2019-05-19T04:15:18.092Z,91.49
2019-05-19T04:16:18.120Z,91.39
2019-05-19T04:17:18.055Z,90.98
2019-05-19T04:18:18.000Z,90.88
2019-05-19T04:19:17.983Z,90.53
2019-05-19T04:20:17.947Z,90.01
2019-05-19T04:21:17.913Z,89.40
2019-05-19T04:22:17.912Z,89.06
2019-05-19T04:23:17.864Z,88.24
2019-05-19T04:24:17.847Z,88.92
2019-05-19T04:25:17.847Z,88.31
2019-05-19T04:26:17.773Z,87.79
2019-05-19T04:27:17.784Z,86.98
2019-05-19T04:28:17.719Z,87.04
2019-05-19T04:29:17.804Z,86.63
2019-05-19T04:30:17.674Z,86.49
2019-05-19T04:31:17.636Z,86.49
2019-05-19T04:32:17.631Z,85.94
2019-05-19T04:33:17.578Z,84.52
2019-05-19T04:34:17.553Z,84.68
2019-05-19T04:35:17.531Z,84.17
2019-05-19T04:36:17.502Z,83.97
2019-05-19T04:37:17.483Z,83.53
2019-05-19T04:38:17.452Z,82.71
2019-05-19T04:39:17.411Z,82.81
2019-05-19T04:40:17.378Z,82.31
2019-05-19T04:41:17.360Z,82.06
2019-05-19T04:42:17.372Z,82.06
2019-05-19T04:43:17.298Z,81.66
2019-05-19T04:44:17.267Z,81.05
2019-05-19T04:45:17.250Z,81.11
2019-05-19T04:46:17.214Z,80.91
2019-05-19T04:47:17.212Z,80.40
2019-05-19T04:48:17.166Z,79.69
2019-05-19T04:49:17.143Z,79.49
2019-05-19T04:50:17.114Z,79.55
2019-05-19T04:51:17.090Z,79.04
2019-05-19T04:52:17.081Z,79.11
2019-05-19T04:53:17.029Z,78.40
2019-05-19T04:54:17.001Z,78.30
2019-05-19T04:55:16.979Z,78.36
2019-05-19T04:56:19.626Z,78.97
2019-05-19T04:57:16.948Z,78.16
2019-05-19T04:58:16.897Z,77.95
2019-05-19T04:59:16.869Z,78.22
2019-05-19T05:00:16.848Z,77.82
2019-05-19T05:01:16.815Z,77.51
2019-05-19T05:02:16.808Z,77.41
2019-05-19T05:03:16.769Z,76.90
2019-05-19T05:04:16.741Z,76.90
2019-05-19T05:05:16.722Z,76.67
2019-05-19T05:06:16.690Z,75.45
2019-05-19T05:07:16.684Z,75.49
2019-05-19T05:08:28.672Z,76.16
2019-05-19T05:09:16.615Z,76.56
2019-05-19T05:10:16.584Z,76.16
2019-05-19T05:11:16.560Z,75.76
2019-05-19T05:12:16.551Z,75.45
2019-05-19T05:13:16.510Z,75.85
2019-05-19T05:14:16.475Z,76.03
2019-05-19T05:15:16.450Z,75.72
2019-05-19T05:16:16.418Z,75.31
2019-05-19T05:17:16.429Z,74.87
2019-05-19T05:18:16.371Z,73.96
2019-05-19T05:19:16.389Z,73.72
2019-05-19T05:20:16.321Z,73.12
2019-05-19T05:21:16.304Z,72.88
2019-05-19T05:22:22.141Z,71.87
2019-05-19T05:23:16.240Z,72.38
2019-05-19T05:24:16.215Z,71.77
2019-05-19T05:25:16.193Z,71.06
2019-05-19T05:26:16.168Z,71.17
2019-05-19T05:27:16.152Z,70.73
2019-05-19T05:28:16.147Z,71.44
2019-05-19T05:29:16.100Z,70.69
2019-05-19T05:30:16.066Z,70.29
2019-05-19T05:31:16.039Z,70.49
2019-05-19T05:32:16.015Z,70.69
2019-05-19T05:33:16.012Z,69.78
2019-05-19T05:34:15.967Z,69.78
2019-05-19T05:35:15.950Z,69.68
2019-05-19T05:36:15.919Z,69.35
2019-05-19T05:37:15.911Z,69.78
2019-05-19T05:38:15.906Z,69.85
2019-05-19T05:39:15.891Z,69.15
2019-05-19T05:40:15.823Z,68.33
2019-05-19T05:41:15.819Z,69.15
2019-05-19T05:42:15.769Z,69.15
2019-05-19T05:43:15.769Z,69.01
2019-05-19T05:44:15.730Z,69.21
2019-05-19T05:45:15.691Z,68.91
2019-05-19T05:46:15.673Z,69.01
2019-05-19T05:47:15.648Z,69.01
2019-05-19T05:48:15.772Z,69.52
2019-05-19T05:49:15.637Z,69.72
2019-05-19T05:50:15.579Z,69.85
2019-05-19T05:51:15.563Z,69.95
2019-05-19T05:52:15.536Z,70.26
2019-05-19T05:53:15.523Z,69.65
2019-05-19T05:54:15.477Z,70.15
2019-05-19T05:55:15.504Z,70.46
2019-05-19T05:56:15.424Z,70.66
2019-05-19T05:57:15.407Z,70.53
2019-05-19T05:58:15.410Z,70.26
2019-05-19T05:59:15.350Z,69.85
2019-05-19T06:00:15.992Z,69.85
2019-05-19T06:01:15.318Z,69.85
2019-05-19T06:02:15.298Z,70.26
2019-05-19T06:03:15.281Z,70.32
2019-05-19T06:04:15.231Z,70.26
2019-05-19T06:05:15.210Z,70.36
2019-05-19T06:06:15.190Z,69.95
2019-05-19T06:07:15.171Z,69.75
2019-05-19T06:08:15.157Z,69.85
2019-05-19T06:09:15.109Z,69.55
2019-05-19T06:10:15.085Z,70.36
2019-05-19T06:11:15.074Z,70.06
2019-05-19T06:12:15.043Z,69.95
2019-05-19T06:13:15.036Z,69.98
2019-05-19T06:14:14.990Z,69.95
2019-05-19T06:15:14.957Z,69.85
2019-05-19T06:16:14.941Z,69.48
2019-05-19T06:17:14.909Z,69.55
2019-05-19T06:18:14.944Z,69.65
2019-05-19T06:19:14.868Z,69.85
2019-05-19T06:20:14.842Z,69.75
2019-05-19T06:21:14.815Z,69.18
2019-05-19T06:22:14.787Z,69.65
2019-05-19T06:23:14.786Z,69.75
2019-05-19T06:24:14.744Z,69.35
2019-05-19T06:25:15.028Z,69.04
2019-05-19T06:26:14.704Z,69.04
2019-05-19T06:27:14.665Z,69.15
2019-05-19T06:28:14.671Z,69.35
2019-05-19T06:29:14.614Z,69.35
2019-05-19T06:30:14.591Z,69.15
2019-05-19T06:31:14.608Z,69.35
2019-05-19T06:32:14.537Z,69.55
2019-05-19T06:33:14.593Z,69.85
2019-05-19T06:34:14.487Z,69.35
2019-05-19T06:35:14.475Z,69.15
2019-05-19T06:36:14.460Z,68.95
2019-05-19T06:37:14.419Z,69.04
2019-05-19T06:38:14.421Z,68.81
2019-05-19T06:39:14.367Z,68.41
2019-05-19T06:40:14.335Z,68.48
2019-05-19T06:41:14.320Z,68.37
2019-05-19T06:42:14.286Z,67.67
2019-05-19T06:43:14.293Z,68.17
2019-05-19T06:44:14.237Z,67.57
2019-05-19T06:45:14.218Z,66.96
2019-05-19T06:46:14.192Z,66.56
2019-05-19T06:47:14.169Z,66.93
2019-05-19T06:48:14.138Z,67.23
2019-05-19T06:49:14.142Z,67.43
2019-05-19T06:50:14.090Z,67.13
2019-05-19T06:51:14.076Z,67.23
2019-05-19T06:52:14.046Z,67.30
2019-05-19T06:53:14.719Z,67.10
2019-05-19T06:54:14.015Z,67.00
2019-05-19T06:55:13.964Z,66.70
2019-05-19T06:56:13.942Z,67.40
2019-05-19T06:57:13.914Z,66.39
2019-05-19T06:58:13.893Z,66.50
2019-05-19T06:59:13.898Z,67.47
2019-05-19T07:00:13.836Z,67.00
2019-05-19T07:01:13.845Z,66.56
2019-05-19T07:02:13.818Z,65.56
2019-05-19T07:03:13.788Z,65.56
2019-05-19T07:04:13.813Z,65.56
2019-05-19T07:05:13.727Z,65.56
2019-05-19T07:06:13.708Z,65.06
2019-05-19T07:07:13.689Z,65.06
2019-05-19T07:08:13.646Z,64.82
2019-05-19T07:09:13.661Z,64.52
2019-05-19T07:10:13.680Z,65.22
2019-05-19T07:11:13.617Z,65.30
2019-05-19T07:12:13.545Z,64.99
2019-05-19T07:13:13.523Z,65.12
2019-05-19T07:14:13.537Z,65.09
2019-05-19T07:15:13.481Z,63.08
2019-05-19T07:16:13.451Z,62.75
2019-05-19T07:17:13.425Z,62.05
2019-05-19T07:18:13.397Z,62.32
2019-05-19T07:19:13.395Z,62.02
2019-05-19T07:20:13.347Z,61.91
2019-05-19T07:21:13.382Z,61.61
2019-05-19T07:22:13.304Z,62.22
2019-05-19T07:23:27.029Z,61.61
2019-05-19T07:24:13.276Z,61.41
2019-05-19T07:25:13.236Z,62.22
2019-05-19T07:26:13.228Z,61.88
2019-05-19T07:27:13.257Z,62.29
2019-05-19T07:28:13.158Z,62.42
2019-05-19T07:29:13.163Z,61.88
2019-05-19T07:30:13.118Z,60.88
2019-05-19T07:31:13.208Z,60.98
2019-05-19T07:32:13.059Z,61.38
2019-05-19T07:33:13.044Z,61.49
2019-05-19T07:34:13.039Z,61.96
2019-05-19T07:35:12.989Z,61.79
2019-05-19T07:36:12.989Z,61.25
2019-05-19T07:37:12.937Z,61.76
2019-05-19T07:38:12.918Z,61.35
2019-05-19T07:39:12.910Z,60.05
2019-05-19T07:40:12.872Z,59.42
2019-05-19T07:41:12.956Z,59.62
2019-05-19T07:42:12.827Z,60.02
2019-05-19T07:43:12.808Z,60.72
2019-05-19T07:44:12.801Z,59.92
2019-05-19T07:45:12.753Z,59.39
2019-05-19T07:46:12.728Z,59.29
2019-05-19T07:47:12.724Z,59.66
2019-05-19T07:48:12.677Z,59.49
2019-05-19T07:49:12.680Z,58.16
2019-05-19T07:50:12.628Z,58.86
2019-05-19T07:51:12.620Z,59.77
2019-05-19T07:52:12.581Z,58.73
2019-05-19T07:53:12.569Z,58.33
2019-05-19T07:54:12.568Z,58.94
2019-05-19T07:55:12.513Z,58.53
2019-05-19T07:56:12.495Z,58.73
2019-05-19T07:57:12.464Z,57.63
2019-05-19T07:58:12.452Z,55.43
2019-05-19T07:59:12.440Z,56.23
2019-05-19T08:00:12.397Z,56.33
2019-05-19T08:01:12.378Z,56.93
2019-05-19T08:02:12.347Z,55.93
2019-05-19T08:03:12.325Z,55.50
2019-05-19T08:04:12.302Z,55.20
2019-05-19T08:05:12.318Z,55.50
2019-05-19T08:06:12.301Z,55.60
2019-05-19T08:07:12.242Z,55.00
2019-05-19T08:08:12.265Z,55.70
2019-05-19T08:09:12.190Z,55.30
2019-05-19T08:10:12.189Z,55.50
2019-05-19T08:11:12.140Z,55.80
2019-05-19T08:12:12.123Z,55.80
2019-05-19T08:13:12.102Z,55.57
2019-05-19T08:14:12.070Z,55.27
2019-05-19T08:15:12.161Z,55.57
2019-05-19T08:16:12.140Z,55.94
2019-05-19T08:17:12.041Z,55.94
2019-05-19T08:18:11.989Z,55.55
2019-05-19T08:19:11.962Z,53.94
2019-05-19T08:20:11.960Z,54.02
2019-05-19T08:21:11.918Z,53.44
2019-05-19T08:22:11.897Z,54.22
2019-05-19T08:23:11.868Z,53.22
2019-05-19T08:24:11.851Z,53.12
2019-05-19T08:25:11.857Z,53.12
2019-05-19T08:26:11.824Z,53.12
2019-05-19T08:27:11.800Z,53.42
2019-05-19T08:28:11.756Z,54.62
2019-05-19T08:29:11.736Z,53.42
2019-05-19T08:30:11.731Z,53.22
2019-05-19T08:31:11.693Z,53.12
2019-05-19T08:32:11.680Z,52.89
2019-05-19T08:33:11.647Z,53.09
2019-05-19T08:34:11.636Z,53.09
2019-05-19T08:35:11.681Z,52.99
2019-05-19T08:36:11.579Z,52.80
2019-05-19T08:37:11.555Z,51.79
2019-05-19T08:38:11.543Z,51.50
2019-05-19T08:39:11.516Z,50.59
2019-05-19T08:40:11.517Z,51.77
2019-05-19T08:41:11.471Z,51.69
2019-05-19T08:42:11.450Z,51.17
2019-05-19T08:43:11.418Z,52.17
2019-05-19T08:44:11.404Z,53.17
2019-05-19T08:45:11.409Z,51.17
2019-05-19T08:46:11.390Z,50.87
2019-05-19T08:47:11.325Z,51.54
2019-05-19T08:48:11.309Z,51.64
2019-05-19T08:49:11.298Z,52.34
2019-05-19T08:50:11.326Z,51.45
2019-05-19T08:51:11.254Z,51.25
2019-05-19T08:52:11.266Z,50.62
2019-05-19T08:53:11.198Z,50.62
2019-05-19T08:54:14.858Z,50.42
2019-05-19T08:55:11.179Z,50.52
2019-05-19T08:56:11.133Z,48.90
2019-05-19T08:57:11.112Z,49.60
2019-05-19T08:58:11.090Z,50.30
2019-05-19T08:59:11.088Z,49.80
2019-05-19T09:00:11.078Z,50.00
2019-05-19T09:01:11.953Z,49.70
2019-05-19T09:02:11.009Z,49.70
2019-05-19T09:03:10.996Z,49.80
2019-05-19T09:04:10.973Z,49.27
2019-05-19T09:05:10.983Z,48.08
2019-05-19T09:06:10.931Z,48.18
2019-05-19T09:07:10.919Z,47.68
2019-05-19T09:08:10.925Z,48.38
2019-05-19T09:09:10.847Z,48.08
2019-05-19T09:10:10.868Z,48.68
2019-05-19T09:11:10.868Z,48.88
2019-05-19T09:12:10.783Z,48.58
2019-05-19T09:13:10.778Z,47.98
2019-05-19T09:14:10.759Z,48.48
2019-05-19T09:15:10.782Z,48.68
2019-05-19T09:16:10.716Z,48.16
2019-05-19T09:17:10.800Z,49.25
2019-05-19T09:18:10.677Z,47.86
2019-05-19T09:19:10.647Z,48.65
2019-05-19T09:20:11.460Z,48.63
2019-05-19T09:21:10.639Z,46.76
2019-05-19T09:22:10.572Z,47.36
2019-05-19T09:23:10.587Z,47.16
2019-05-19T09:24:10.549Z,46.96
2019-05-19T09:25:10.568Z,46.76
2019-05-19T09:26:10.491Z,47.06
2019-05-19T09:27:10.469Z,46.76
2019-05-19T09:28:10.493Z,46.96
2019-05-19T09:29:10.431Z,46.58
2019-05-19T09:30:10.407Z,46.66
2019-05-19T09:31:10.416Z,46.96
2019-05-19T09:32:10.374Z,46.46
2019-05-19T09:33:10.340Z,46.76
2019-05-19T09:34:10.313Z,46.94
2019-05-19T09:35:10.301Z,46.94
2019-05-19T09:36:10.310Z,46.73
2019-05-19T09:37:10.257Z,46.94
2019-05-19T09:38:10.414Z,46.34
2019-05-19T09:39:10.235Z,46.84
2019-05-19T09:40:10.195Z,46.61
2019-05-19T09:41:10.213Z,46.34
2019-05-19T09:42:10.149Z,46.81
2019-05-19T09:43:10.183Z,46.91
2019-05-19T09:44:10.101Z,46.12
2019-05-19T09:45:10.100Z,46.01
2019-05-19T09:46:10.083Z,46.01
2019-05-19T09:47:10.053Z,45.90
2019-05-19T09:48:10.023Z,45.22
2019-05-19T09:49:09.997Z,44.90
2019-05-19T09:50:09.976Z,44.48
2019-05-19T09:51:09.982Z,45.00
2019-05-19T09:52:09.933Z,44.10
2019-05-19T09:53:09.925Z,45.60
2019-05-19T09:54:09.899Z,45.12
2019-05-19T09:55:09.876Z,45.30
2019-05-19T09:56:09.887Z,44.90
2019-05-19T09:57:09.831Z,45.28
2019-05-19T09:58:09.810Z,44.70
2019-05-19T09:59:09.798Z,45.50
2019-05-19T10:00:09.774Z,45.70
2019-05-19T10:01:09.782Z,45.20
2019-05-19T10:02:10.492Z,45.10
2019-05-19T10:03:09.723Z,46.00
2019-05-19T10:04:09.689Z,46.39
2019-05-19T10:05:09.667Z,46.00
2019-05-19T10:06:09.666Z,45.20
2019-05-19T10:07:09.745Z,46.00
2019-05-19T10:08:09.603Z,45.70
2019-05-19T10:09:09.584Z,45.20
2019-05-19T10:10:09.559Z,44.10
2019-05-19T10:11:09.570Z,44.90
2019-05-19T10:12:09.526Z,44.98
2019-05-19T10:13:09.502Z,45.97
2019-05-19T10:14:09.485Z,45.95
2019-05-19T10:15:09.459Z,45.06
2019-05-19T10:16:09.467Z,45.95
2019-05-19T10:17:09.417Z,45.03
2019-05-19T10:18:09.398Z,43.54
2019-05-19T10:19:09.380Z,43.05
2019-05-19T10:20:09.357Z,43.54
2019-05-19T10:21:09.361Z,43.86
2019-05-19T10:22:09.319Z,45.37
2019-05-19T10:23:09.303Z,45.18
2019-05-19T10:24:09.275Z,44.76
2019-05-19T10:25:21.153Z,45.57
2019-05-19T10:26:09.232Z,44.46
2019-05-19T10:27:09.267Z,44.46
2019-05-19T10:28:09.194Z,44.14
2019-05-19T10:29:09.172Z,43.15
2019-05-19T10:30:09.160Z,42.55
2019-05-19T10:31:09.174Z,42.55
2019-05-19T10:32:09.139Z,43.72
2019-05-19T10:33:09.097Z,43.13
2019-05-19T10:34:09.099Z,42.15
2019-05-19T10:35:09.055Z,41.04
2019-05-19T10:36:09.031Z,42.15
2019-05-19T10:37:09.100Z,42.75
2019-05-19T10:38:09.000Z,42.65
2019-05-19T10:39:08.967Z,42.53
2019-05-19T10:40:08.944Z,42.55
2019-05-19T10:41:08.931Z,42.33
2019-05-19T10:42:08.932Z,43.05
2019-05-19T10:43:08.924Z,41.06
2019-05-19T10:44:08.880Z,43.07
2019-05-19T10:45:08.852Z,42.77
2019-05-19T10:46:08.826Z,42.75
2019-05-19T10:47:08.831Z,43.64
2019-05-19T10:48:08.790Z,43.24
2019-05-19T10:49:08.771Z,43.13
2019-05-19T10:50:08.753Z,43.44
2019-05-19T10:51:08.729Z,44.42
2019-05-19T10:52:08.730Z,43.82
2019-05-19T10:53:08.743Z,43.42
2019-05-19T10:54:08.692Z,42.72
2019-05-19T10:55:08.646Z,42.63
2019-05-19T10:56:08.628Z,42.63
2019-05-19T10:57:08.632Z,42.53
2019-05-19T10:58:08.589Z,42.80
2019-05-19T10:59:08.573Z,42.72
2019-05-19T11:00:08.556Z,42.93
2019-05-19T11:01:08.566Z,42.80
2019-05-19T11:02:08.534Z,42.51
2019-05-19T11:03:08.516Z,42.80
2019-05-19T11:04:08.466Z,42.80
2019-05-19T11:05:11.186Z,43.01
2019-05-19T11:06:08.433Z,42.99
2019-05-19T11:07:08.405Z,43.40
2019-05-19T11:08:08.408Z,42.11
2019-05-19T11:09:08.371Z,42.43
2019-05-19T11:10:08.349Z,41.82
2019-05-19T11:11:08.326Z,42.53
2019-05-19T11:12:08.310Z,42.33
2019-05-19T11:13:08.425Z,43.02
2019-05-19T11:14:08.277Z,42.80
2019-05-19T11:15:08.250Z,41.61
2019-05-19T11:16:08.229Z,41.82
2019-05-19T11:17:08.231Z,42.39
2019-05-19T11:18:08.209Z,41.30
2019-05-19T11:19:08.166Z,42.57
2019-05-19T11:20:08.147Z,40.78
2019-05-19T11:21:08.127Z,41.50
2019-05-19T11:22:08.114Z,42.29
2019-05-19T11:23:08.119Z,42.17
2019-05-19T11:24:08.068Z,40.68
2019-05-19T11:25:08.078Z,40.68
2019-05-19T11:26:08.043Z,40.48
2019-05-19T11:27:10.054Z,40.96
2019-05-19T11:28:08.013Z,40.56
2019-05-19T11:29:07.981Z,40.86
2019-05-19T11:30:07.943Z,40.47
2019-05-19T11:31:07.932Z,40.34
2019-05-19T11:32:07.905Z,40.26
2019-05-19T11:33:07.950Z,40.96
2019-05-19T11:34:07.869Z,40.56
2019-05-19T11:35:07.866Z,40.96
2019-05-19T11:36:07.828Z,40.96
2019-05-19T11:37:07.814Z,40.17
2019-05-19T11:38:07.816Z,40.55
2019-05-19T11:39:07.776Z,39.75
2019-05-19T11:40:07.749Z,39.65
2019-05-19T11:41:07.786Z,40.34
2019-05-19T11:42:07.712Z,40.47
2019-05-19T11:43:07.739Z,40.07
2019-05-19T11:44:07.688Z,39.67
2019-05-19T11:45:07.652Z,39.97
2019-05-19T11:46:07.643Z,39.06
2019-05-19T11:47:07.623Z,38.76
2019-05-19T11:48:07.631Z,38.76
2019-05-19T11:49:07.587Z,39.25
2019-05-19T11:50:07.568Z,40.23
2019-05-19T11:51:07.567Z,40.42
2019-05-19T11:52:07.526Z,40.92
2019-05-19T11:53:07.544Z,38.92
2019-05-19T11:54:07.482Z,39.10
2019-05-19T11:55:07.463Z,39.29
2019-05-19T11:56:11.242Z,39.48
2019-05-19T11:57:07.429Z,39.28
2019-05-19T11:58:07.441Z,39.28
2019-05-19T11:59:07.404Z,38.49
2019-05-19T12:00:07.372Z,39.37
2019-05-19T12:01:07.352Z,38.60
2019-05-19T12:02:07.586Z,39.00
2019-05-19T12:03:07.340Z,38.60
2019-05-19T12:04:07.295Z,38.94
2019-05-19T12:05:07.278Z,38.96
2019-05-19T12:06:07.271Z,39.55
2019-05-19T12:07:07.247Z,39.23
2019-05-19T12:08:07.260Z,38.72
2019-05-19T12:09:07.218Z,39.00
2019-05-19T12:10:07.189Z,38.09
2019-05-19T12:11:07.188Z,38.07
2019-05-19T12:12:07.165Z,38.94
2019-05-19T12:13:07.175Z,37.76
2019-05-19T12:14:07.120Z,38.25
2019-05-19T12:15:07.101Z,38.35
2019-05-19T12:16:07.099Z,38.43
2019-05-19T12:17:07.141Z,36.95
2019-05-19T12:18:07.096Z,36.95
2019-05-19T12:19:07.025Z,36.25
2019-05-19T12:20:07.028Z,36.46
2019-05-19T12:21:06.989Z,36.16
2019-05-19T12:22:06.979Z,37.15
2019-05-19T12:23:06.989Z,36.46
2019-05-19T12:24:06.947Z,36.75
2019-05-19T12:25:06.925Z,37.34
2019-05-19T12:26:20.951Z,37.94
2019-05-19T12:27:06.896Z,38.23
2019-05-19T12:28:06.872Z,37.24
2019-05-19T12:29:06.882Z,38.04
2019-05-19T12:30:06.850Z,37.03
2019-05-19T12:31:06.814Z,37.05
2019-05-19T12:32:06.815Z,37.21
2019-05-19T12:33:06.794Z,36.71
2019-05-19T12:34:06.812Z,36.50
2019-05-19T12:35:06.764Z,36.09
2019-05-19T12:36:06.753Z,36.29
2019-05-19T12:37:06.736Z,36.19
2019-05-19T12:38:06.699Z,36.96
2019-05-19T12:39:06.709Z,37.15
2019-05-19T12:40:06.793Z,36.78
2019-05-19T12:41:06.668Z,36.46
2019-05-19T12:42:06.640Z,35.77
2019-05-19T12:43:06.623Z,35.38
2019-05-19T12:44:06.677Z,35.12
2019-05-19T12:45:06.595Z,34.84
2019-05-19T12:46:15.635Z,35.53
2019-05-19T12:47:06.567Z,36.14
2019-05-19T12:48:06.538Z,36.54
2019-05-19T12:49:06.556Z,35.07
2019-05-19T12:50:06.604Z,35.76
2019-05-19T12:51:06.488Z,36.34
2019-05-19T12:52:06.476Z,35.25